createdAt,value
2018-07-14T00:02:01.374Z,5.4
2018-07-14T00:07:01.231Z,5.2
2018-07-14T00:12:01.296Z,5.1
2018-07-14T00:17:01.250Z,5.1
2018-07-14T00:22:01.300Z,5.4
2018-07-14T00:27:01.287Z,5.7
2018-07-14T00:32:06.302Z,6.0
2018-07-14T00:37:06.249Z,5.8
2018-07-14T00:42:01.359Z,5.8
2018-07-14T00:47:01.323Z,5.4
2018-07-14T00:52:01.247Z,5.0
2018-07-14T00:57:01.241Z,4.6
2018-07-14T01:02:01.351Z,4.3
2018-07-14T01:07:06.238Z,3.9
2018-07-14T01:12:01.331Z,4.1
2018-07-14T01:17:06.246Z,4.0
2018-07-14T01:22:06.311Z,3.9
2018-07-14T01:28:01.237Z,4.0
2018-07-14T01:33:06.295Z,4.1
2018-07-14T01:38:01.242Z,4.0
2018-07-14T01:43:06.320Z,4.0
2018-07-14T01:48:01.242Z,4.0
2018-07-14T01:58:01.269Z,3.9
2018-07-14T02:03:01.330Z,3.6
2018-07-14T02:18:01.340Z,3.2
2018-07-14T02:28:01.413Z,3.4
2018-07-14T02:39:01.298Z,3.3
2018-07-14T02:44:06.287Z,3.5
2018-07-14T02:54:01.301Z,3.3
2018-07-14T03:10:01.301Z,3.4
2018-07-14T03:15:01.304Z,3.4
2018-07-14T03:20:01.303Z,3.2
2018-07-14T03:25:01.240Z,2.9
2018-07-14T03:30:01.375Z,2.7
2018-07-14T03:35:01.240Z,2.7
2018-07-14T03:45:01.322Z,3.0
2018-07-14T03:50:01.386Z,3.2
2018-07-14T03:55:01.244Z,3.2
2018-07-14T04:00:01.366Z,3.2
2018-07-14T04:05:01.236Z,3.4
2018-07-14T04:10:01.366Z,3.1
2018-07-14T04:15:01.241Z,3.0
2018-07-14T04:26:01.362Z,3.0
2018-07-14T04:31:01.363Z,2.8
2018-07-14T04:36:01.240Z,3.0
2018-07-14T04:46:01.300Z,2.8
2018-07-14T04:51:01.313Z,3.2
2018-07-14T04:56:01.241Z,3.2
2018-07-14T05:01:01.306Z,3.0
2018-07-14T05:11:01.295Z,3.2
2018-07-14T05:16:06.240Z,2.9
2018-07-14T05:21:06.439Z,2.9
2018-07-14T05:26:06.247Z,2.9
2018-07-14T05:31:06.382Z,2.8
2018-07-14T05:36:01.283Z,2.6
2018-07-14T05:42:06.364Z,2.7
2018-07-14T05:52:06.396Z,2.6
2018-07-14T05:57:06.246Z,2.5
2018-07-14T06:02:06.369Z,2.4
2018-07-14T06:07:06.250Z,2.2
2018-07-14T06:17:06.231Z,2.4
2018-07-14T06:22:06.294Z,2.6
2018-07-14T06:27:06.234Z,2.8
2018-07-14T06:37:01.300Z,2.7
2018-07-14T06:42:01.311Z,2.4
2018-07-14T06:47:01.233Z,2.2
2018-07-14T06:53:01.298Z,2.0
2018-07-14T06:58:01.235Z,2.0
2018-07-14T07:03:01.300Z,2.2
2018-07-14T07:13:01.365Z,2.2
2018-07-14T07:23:06.246Z,2.2
2018-07-14T07:33:01.240Z,2.3
2018-07-14T07:43:01.261Z,2.7
2018-07-14T07:48:01.234Z,2.9
2018-07-14T08:03:01.240Z,2.8
2018-07-14T08:08:01.237Z,2.6
2018-07-14T08:13:01.235Z,2.4
2018-07-14T08:18:01.231Z,2.2
2018-07-14T08:33:01.242Z,2.2
2018-07-14T08:38:01.368Z,2.1
2018-07-14T08:44:01.234Z,2.2
2018-07-14T08:49:01.237Z,2.1
2018-07-14T09:04:01.243Z,2.3
2018-07-14T09:14:01.249Z,2.4
2018-07-14T09:29:01.234Z,2.2
2018-07-14T09:34:01.245Z,2.4
2018-07-14T09:39:01.320Z,2.2
2018-07-14T09:54:01.253Z,2.0
2018-07-14T09:59:01.257Z,1.8
2018-07-14T10:14:01.242Z,1.8
2018-07-14T10:19:01.240Z,2.0
2018-07-14T10:29:01.418Z,2.1
2018-07-14T10:44:01.237Z,2.0
2018-07-14T10:54:02.263Z,1.8
2018-07-14T11:04:01.293Z,1.9
2018-07-14T11:14:01.233Z,2.1
2018-07-14T11:19:01.238Z,2.2
2018-07-14T11:24:01.253Z,2.5
2018-07-14T11:29:01.242Z,2.7
2018-07-14T11:39:01.296Z,2.6
2018-07-14T11:49:01.334Z,2.4
2018-07-14T12:04:01.333Z,2.6
2018-07-14T12:09:02.291Z,3.0
2018-07-14T12:14:01.253Z,2.9
2018-07-14T12:19:01.248Z,2.8
2018-07-14T12:24:01.224Z,2.9
2018-07-14T12:29:01.228Z,3.0
2018-07-14T12:34:01.294Z,2.8
2018-07-14T12:39:01.235Z,2.9
2018-07-14T12:44:06.247Z,3.2
2018-07-14T12:49:06.244Z,3.3
2018-07-14T12:54:06.240Z,3.4
2018-07-14T13:04:06.255Z,3.2
2018-07-14T13:19:01.232Z,2.8
2018-07-14T13:24:01.240Z,2.8
2018-07-14T13:29:01.260Z,3.0
2018-07-14T13:34:06.241Z,3.1
2018-07-14T13:39:01.340Z,3.6
2018-07-14T13:44:01.269Z,3.6
2018-07-14T13:54:01.267Z,3.8
2018-07-14T14:04:06.330Z,3.7
2018-07-14T14:09:06.306Z,4.0
2018-07-14T14:14:01.254Z,4.4
2018-07-14T14:19:01.255Z,4.2
2018-07-14T14:24:01.412Z,4.4
2018-07-14T14:29:01.236Z,4.7
2018-07-14T14:34:01.249Z,4.5
2018-07-14T14:39:01.309Z,4.3
2018-07-14T14:44:01.246Z,4.6
2018-07-14T14:49:01.303Z,4.6
2018-07-14T14:54:01.244Z,4.6
2018-07-14T15:05:01.233Z,4.6
2018-07-14T15:10:06.310Z,4.9
2018-07-14T15:15:01.237Z,4.9
2018-07-14T15:20:01.236Z,4.5
2018-07-14T15:25:01.244Z,4.7
2018-07-14T15:30:01.338Z,4.7
2018-07-14T15:35:01.235Z,4.4
2018-07-14T15:45:01.245Z,4.4
2018-07-14T15:50:01.240Z,4.5
2018-07-14T15:55:06.237Z,5.0
2018-07-14T16:00:06.246Z,5.0
2018-07-14T16:05:01.242Z,5.2
2018-07-14T16:15:01.232Z,5.2
2018-07-14T16:20:01.238Z,4.8
2018-07-14T16:25:01.236Z,5.0
2018-07-14T16:30:01.237Z,4.9
2018-07-14T16:35:06.240Z,5.3
2018-07-14T16:40:01.284Z,5.0
2018-07-14T16:45:01.284Z,5.2
2018-07-14T16:50:01.415Z,5.1
2018-07-14T16:56:01.234Z,5.1
2018-07-14T17:01:01.234Z,5.1
2018-07-14T17:06:01.236Z,5.2
2018-07-14T17:11:06.301Z,5.1
2018-07-14T17:16:01.287Z,5.6
2018-07-14T17:21:01.276Z,6.0
2018-07-14T17:26:06.230Z,6.3
2018-07-14T17:31:01.281Z,6.5
2018-07-14T17:36:01.344Z,6.7
2018-07-14T17:41:01.268Z,6.3
2018-07-14T17:51:01.245Z,6.3
2018-07-14T18:02:01.229Z,6.2
2018-07-14T18:07:01.233Z,6.3
2018-07-14T18:12:01.236Z,6.3
2018-07-14T18:17:06.244Z,6.2
2018-07-14T18:22:01.239Z,6.4
2018-07-14T18:27:01.264Z,6.7
2018-07-14T18:37:01.232Z,6.6
2018-07-14T18:42:01.232Z,6.4
2018-07-14T18:47:01.240Z,6.1
2018-07-14T18:52:01.242Z,6.0
2018-07-14T18:57:01.237Z,6.2
2018-07-14T19:02:01.242Z,6.4
2018-07-14T19:07:01.241Z,6.6
2018-07-14T19:12:01.253Z,6.9
2018-07-14T19:22:01.232Z,6.7
2018-07-14T19:27:01.252Z,6.5
2018-07-14T19:32:01.248Z,6.3
2018-07-14T19:37:01.242Z,6.4
2018-07-14T19:45:00.410Z,3.8
2018-07-14T19:50:00.632Z,5.2
2018-07-14T19:55:00.606Z,6.1
2018-07-14T20:00:01.178Z,5.0
2018-07-14T20:05:01.154Z,5.3
2018-07-14T20:10:01.227Z,5.9
2018-07-14T20:15:01.214Z,5.9
2018-07-14T20:20:01.164Z,6.3
2018-07-14T20:25:01.166Z,6.9
2018-07-14T20:40:00.722Z,9.0
2018-07-14T20:45:00.729Z,8.5
2018-07-14T20:50:00.732Z,8.5
2018-07-14T21:00:00.730Z,8.6
2018-07-14T21:05:00.733Z,8.6
2018-07-14T21:10:00.732Z,9.0
2018-07-14T21:15:00.761Z,8.7
2018-07-14T21:20:00.769Z,8.4
2018-07-14T21:25:00.767Z,8.2
2018-07-14T21:30:00.782Z,7.8
2018-07-14T21:40:00.778Z,8.1
2018-07-14T21:45:00.751Z,8.5
2018-07-14T21:50:00.750Z,9.0
2018-07-14T21:55:00.749Z,9.4
2018-07-14T22:00:00.752Z,9.4
2018-07-14T22:05:00.753Z,9.4
2018-07-14T22:10:00.750Z,9.2
2018-07-14T22:15:00.856Z,9.1
2018-07-14T22:20:00.773Z,9.6
2018-07-14T22:25:00.763Z,9.1
2018-07-14T22:30:00.759Z,9.2
2018-07-14T22:40:00.777Z,9.2
2018-07-14T22:45:00.759Z,8.6
2018-07-14T22:50:00.761Z,9.0
2018-07-14T22:55:00.771Z,9.5
2018-07-14T23:00:00.769Z,9.8
2018-07-14T23:05:00.775Z,10.1
2018-07-14T23:10:00.796Z,10.5
2018-07-14T23:15:00.772Z,10.7
2018-07-14T23:25:00.805Z,10.9
2018-07-14T23:30:00.777Z,11.0
2018-07-14T23:35:00.805Z,11.1
2018-07-14T23:40:00.810Z,11.3
2018-07-14T23:45:00.780Z,11.9
2018-07-14T23:50:00.819Z,11.9
